logo
Search for airport 
image banner adimage banner adimage banner ad
image banner ad

WMAP - Kluang

Located in Kluang, Malaysia

ICAO - WMAP, IATA -

Data provided by Airmate  

General information

Coordinates: N2°2'38" E103°18'27"
Elevation is 142 feet MSL.
 
View others Airports in Johor

Operational data

Special qualification required
Current time UTC:
Current local time:
Weather
TAF: TAF WMAP 212300Z 2200/2300 VRB02KT 9000 FEW010 TEMPO 2200/2204 6000 -RA FEW017CB SCT018
View NOTAMs / SUP AIP / TFR affecting this airport [VIEW]
Communications frequencies: [VIEW]

Runways:

RWY identifierQFULength (ft)Width (ft)SurfaceLDA (ft)
0549°4101121GRE
23229°4101121GRE

Airport contact information

Address: Kluang Malaysia

Satellite view of WMAP